Time;durP1;ratioP1;P1;durP2;ratioP2;P2;SDS_P1;SDS_P2;PMS_P1;PMS_P2;Temp;Humidity;BMP_temperature;BMP_pressure;BME280_temperature;BME280_humidity;BME280_pressure;Samples;Min_cycle;Max_cycle;Signal;HPM_P1;HPM_P2
2022/06/15 00:01:50;;;;;;;2.47;1.02;;;;;;;;;;8350314;28;20189;-62
2022/06/15 00:05:51;;;;;;;0.82;0.80;;;;;;;;;;8353371;28;20098;-64
2022/06/15 00:09:51;;;;;;;1.95;1.10;;;;;;;;;;8354626;28;20028;-61
2022/06/15 00:13:53;;;;;;;1.50;1.02;;;;;;;;;;8354139;28;20139;-61
2022/06/15 00:17:53;;;;;;;5.43;1.00;;;;;;;;;;8353806;28;20043;-61
2022/06/15 00:21:53;;;;;;;1.10;1.00;;;;;;;;;;8347800;28;20750;-61
2022/06/15 00:25:54;;;;;;;3.00;1.00;;;;;;;;;;8353600;28;20029;-62
2022/06/15 00:29:54;;;;;;;1.05;0.95;;;;;;;;;;8359530;28;20053;-61
2022/06/15 00:33:55;;;;;;;2.83;1.20;;;;;;;;;;8362100;28;20094;-61
2022/06/15 00:37:55;;;;;;;1.48;1.20;;;;;;;;;;8359875;28;20024;-61
2022/06/15 00:41:55;;;;;;;1.63;1.00;;;;;;;;;;8357872;28;20033;-61
2022/06/15 00:45:55;;;;;;;1.40;0.90;;;;;;;;;;8356753;28;20684;-61
2022/06/15 00:50:06;;;;;;;3.27;0.80;;;;;;;;;;8358090;28;20060;-61
2022/06/15 00:54:07;;;;;;;2.00;0.90;;;;;;;;;;8358992;28;20404;-60
2022/06/15 00:58:08;;;;;;;2.72;1.10;;;;;;;;;;8359566;28;20627;-61
2022/06/15 01:02:09;;;;;;;1.95;1.10;;;;;;;;;;8356757;28;20189;-61
2022/06/15 01:06:09;;;;;;;3.50;1.10;;;;;;;;;;8358076;28;20031;-61
2022/06/15 01:10:21;;;;;;;4.95;1.30;;;;;;;;;;8354363;28;20025;-61
2022/06/15 01:14:33;;;;;;;1.95;1.00;;;;;;;;;;8355030;28;20730;-61
2022/06/15 01:18:46;;;;;;;2.55;1.20;;;;;;;;;;8354073;28;20424;-61
2022/06/15 01:22:52;;;;;;;1.08;0.95;;;;;;;;;;8358367;28;20028;-66
2022/06/15 01:27:21;;;;;;;1.40;1.20;;;;;;;;;;8358146;28;20025;-61
2022/06/15 01:31:24;;;;;;;0.98;0.95;;;;;;;;;;8356856;28;20747;-61
2022/06/15 01:35:32;;;;;;;1.15;1.08;;;;;;;;;;8358679;28;20127;-61
2022/06/15 01:39:51;;;;;;;1.65;0.98;;;;;;;;;;8357347;28;20512;-61
2022/06/15 01:43:57;;;;;;;2.25;1.20;;;;;;;;;;8357267;28;20067;-60
2022/06/15 01:47:58;;;;;;;2.78;1.20;;;;;;;;;;8358149;28;20040;-60
2022/06/15 01:51:59;;;;;;;3.33;0.90;;;;;;;;;;8357055;28;20033;-61
2022/06/15 01:56:12;;;;;;;1.60;1.10;;;;;;;;;;8357419;28;20035;-60
2022/06/15 02:00:16;;;;;;;1.47;1.17;;;;;;;;;;8354165;28;20020;-61
2022/06/15 02:04:17;;;;;;;3.38;1.10;;;;;;;;;;8355513;28;20437;-60
2022/06/15 02:08:22;;;;;;;1.88;1.10;;;;;;;;;;8355325;28;20028;-61
2022/06/15 02:12:35;;;;;;;6.60;1.20;;;;;;;;;;8353310;28;20024;-61
2022/06/15 02:16:38;;;;;;;4.63;1.40;;;;;;;;;;8354937;28;20045;-60
2022/06/15 02:20:41;;;;;;;1.27;1.00;;;;;;;;;;8357391;28;20044;-61
2022/06/15 02:24:43;;;;;;;1.55;1.05;;;;;;;;;;8354818;28;20031;-61
2022/06/15 02:28:53;;;;;;;2.30;1.02;;;;;;;;;;8354908;28;20020;-60
2022/06/15 02:32:53;;;;;;;2.90;1.00;;;;;;;;;;8353812;28;20071;-61
2022/06/15 02:36:54;;;;;;;1.45;1.00;;;;;;;;;;8353418;28;20027;-61
2022/06/15 02:40:54;;;;;;;3.45;1.30;;;;;;;;;;8357607;28;20035;-61
2022/06/15 02:44:58;;;;;;;2.28;1.20;;;;;;;;;;8355921;28;20035;-61
2022/06/15 02:48:58;;;;;;;5.78;1.38;;;;;;;;;;8354379;28;20033;-60
2022/06/15 02:53:04;;;;;;;2.35;1.17;;;;;;;;;;8353124;28;20028;-61
2022/06/15 02:57:04;;;;;;;1.73;1.23;;;;;;;;;;8357412;28;20021;-60
2022/06/15 03:01:04;;;;;;;3.05;1.42;;;;;;;;;;8352868;28;20032;-61
2022/06/15 03:05:05;;;;;;;2.80;1.20;;;;;;;;;;8355070;28;20476;-60
2022/06/15 03:09:05;;;;;;;1.63;1.23;;;;;;;;;;8354429;28;20036;-61
2022/06/15 03:13:05;;;;;;;1.70;1.38;;;;;;;;;;8354959;28;20021;-60
2022/06/15 03:17:06;;;;;;;4.03;1.20;;;;;;;;;;8352756;28;20576;-60
2022/06/15 03:21:06;;;;;;;4.13;1.40;;;;;;;;;;8355486;28;20082;-64
2022/06/15 03:25:06;;;;;;;3.25;1.55;;;;;;;;;;8354541;28;20027;-60
2022/06/15 03:29:06;;;;;;;6.70;1.60;;;;;;;;;;8354490;28;20017;-60
2022/06/15 03:33:07;;;;;;;3.33;1.20;;;;;;;;;;8353785;28;20700;-59
2022/06/15 03:37:07;;;;;;;4.27;1.50;;;;;;;;;;8356458;28;20315;-60
2022/06/15 03:41:08;;;;;;;1.80;1.30;;;;;;;;;;8352068;28;20082;-61
2022/06/15 03:45:11;;;;;;;2.80;1.30;;;;;;;;;;8351380;28;20078;-59
2022/06/15 03:49:11;;;;;;;2.17;1.40;;;;;;;;;;8352939;28;20028;-60
2022/06/15 03:53:12;;;;;;;2.90;1.10;;;;;;;;;;8351398;28;20028;-60
2022/06/15 03:57:13;;;;;;;2.30;1.30;;;;;;;;;;8352718;28;20024;-60
2022/06/15 04:01:13;;;;;;;2.22;1.30;;;;;;;;;;8351769;28;20865;-61
2022/06/15 04:05:18;;;;;;;1.93;1.13;;;;;;;;;;8360388;28;20024;-60
2022/06/15 04:09:22;;;;;;;1.85;1.10;;;;;;;;;;8358046;28;21103;-60
2022/06/15 04:13:23;;;;;;;2.95;1.10;;;;;;;;;;8358403;28;20032;-60
2022/06/15 04:17:23;;;;;;;1.27;1.02;;;;;;;;;;8358315;28;20622;-60
2022/06/15 04:21:23;;;;;;;1.70;1.10;;;;;;;;;;8359027;28;20107;-60
2022/06/15 04:25:24;;;;;;;2.75;1.08;;;;;;;;;;8357261;28;20020;-60
2022/06/15 04:29:25;;;;;;;1.38;1.20;;;;;;;;;;8360961;28;20024;-59
2022/06/15 04:33:28;;;;;;;2.70;1.10;;;;;;;;;;8358885;28;20400;-59
2022/06/15 04:37:28;;;;;;;3.35;1.10;;;;;;;;;;8360189;28;20032;-60
2022/06/15 04:41:28;;;;;;;1.73;1.20;;;;;;;;;;8358094;28;20763;-60
2022/06/15 04:45:29;;;;;;;1.40;0.97;;;;;;;;;;8358391;28;20121;-59
2022/06/15 04:49:29;;;;;;;2.28;1.20;;;;;;;;;;8357315;28;20028;-60
2022/06/15 04:53:30;;;;;;;1.10;0.97;;;;;;;;;;8353608;28;20052;-60
2022/06/15 04:57:30;;;;;;;1.48;1.08;;;;;;;;;;8355485;28;20322;-60
2022/06/15 05:01:30;;;;;;;5.43;1.20;;;;;;;;;;8357512;28;20036;-60
2022/06/15 05:05:31;;;;;;;1.60;1.10;;;;;;;;;;8357331;28;20035;-61
2022/06/15 05:09:31;;;;;;;2.40;1.20;;;;;;;;;;8356975;28;20314;-60
2022/06/15 05:13:31;;;;;;;1.35;1.05;;;;;;;;;;8355602;28;20278;-61
2022/06/15 05:17:31;;;;;;;2.35;1.05;;;;;;;;;;8355812;28;20985;-60
2022/06/15 05:21:37;;;;;;;3.45;1.20;;;;;;;;;;8355144;28;20499;-61
2022/06/15 05:25:37;;;;;;;3.30;1.40;;;;;;;;;;8356068;28;20540;-61
2022/06/15 05:29:38;;;;;;;2.08;1.20;;;;;;;;;;8356589;28;20806;-60
2022/06/15 05:33:40;;;;;;;3.63;1.48;;;;;;;;;;8356603;28;20040;-61
2022/06/15 05:37:40;;;;;;;1.80;1.10;;;;;;;;;;8355320;28;20028;-60
2022/06/15 05:41:41;;;;;;;3.37;1.37;;;;;;;;;;8354462;28;20024;-60
2022/06/15 05:45:41;;;;;;;1.20;1.10;;;;;;;;;;8354589;28;20271;-61
2022/06/15 05:49:41;;;;;;;3.85;1.08;;;;;;;;;;8355577;28;20023;-61
2022/06/15 05:53:41;;;;;;;1.48;1.15;;;;;;;;;;8355154;28;20056;-61
2022/06/15 05:57:42;;;;;;;1.90;1.20;;;;;;;;;;8355114;28;20443;-61
2022/06/15 06:01:42;;;;;;;1.38;1.10;;;;;;;;;;8353150;28;20708;-61
2022/06/15 06:05:42;;;;;;;2.50;1.30;;;;;;;;;;8355659;28;20115;-61
2022/06/15 06:09:42;;;;;;;2.75;1.20;;;;;;;;;;8353854;28;20029;-61
2022/06/15 06:13:43;;;;;;;2.95;1.30;;;;;;;;;;8354283;28;20553;-61
2022/06/15 06:17:43;;;;;;;3.30;1.20;;;;;;;;;;8355037;28;20110;-61
2022/06/15 06:21:43;;;;;;;3.72;1.40;;;;;;;;;;8355993;28;20901;-61
2022/06/15 06:25:46;;;;;;;1.88;1.10;;;;;;;;;;8350879;28;20107;-62
2022/06/15 06:29:46;;;;;;;3.78;1.27;;;;;;;;;;8350938;28;20020;-61
2022/06/15 06:33:47;;;;;;;2.65;1.10;;;;;;;;;;8351785;28;20043;-61
2022/06/15 06:37:47;;;;;;;2.65;1.60;;;;;;;;;;8354864;28;20078;-62
2022/06/15 06:41:47;;;;;;;2.77;1.27;;;;;;;;;;8353994;28;20086;-62
2022/06/15 06:45:48;;;;;;;1.90;1.23;;;;;;;;;;8353690;28;20079;-61
2022/06/15 06:49:49;;;;;;;3.80;1.55;;;;;;;;;;8352064;28;20043;-62
2022/06/15 06:53:49;;;;;;;4.53;1.77;;;;;;;;;;8352832;28;20028;-61
2022/06/15 06:57:52;;;;;;;2.17;1.50;;;;;;;;;;8353661;28;20874;-61
2022/06/15 07:01:53;;;;;;;3.75;1.60;;;;;;;;;;8354037;28;21052;-61
2022/06/15 07:05:58;;;;;;;2.13;1.30;;;;;;;;;;8353932;28;20860;-61
2022/06/15 07:09:58;;;;;;;3.65;1.40;;;;;;;;;;8352003;28;20029;-62
2022/06/15 07:13:58;;;;;;;1.55;1.35;;;;;;;;;;8351243;28;20028;-60
2022/06/15 07:18:02;;;;;;;3.42;1.48;;;;;;;;;;8349361;28;20032;-60
2022/06/15 07:22:02;;;;;;;2.92;1.50;;;;;;;;;;8348079;28;20029;-60
2022/06/15 07:26:03;;;;;;;3.67;1.40;;;;;;;;;;8345977;28;20024;-61
2022/06/15 07:30:05;;;;;;;3.38;1.55;;;;;;;;;;8345760;28;20307;-61
2022/06/15 07:34:06;;;;;;;2.90;1.80;;;;;;;;;;8346764;28;20115;-60
2022/06/15 07:38:06;;;;;;;4.70;1.90;;;;;;;;;;8353469;28;20160;-60
2022/06/15 07:42:09;;;;;;;6.93;1.80;;;;;;;;;;8357159;28;20027;-61
2022/06/15 07:46:09;;;;;;;7.93;1.92;;;;;;;;;;8357834;28;20116;-60
2022/06/15 07:50:09;;;;;;;4.10;2.50;;;;;;;;;;8359270;28;20121;-61
2022/06/15 07:54:11;;;;;;;4.60;2.00;;;;;;;;;;8356575;28;20485;-60
2022/06/15 07:58:12;;;;;;;6.13;2.13;;;;;;;;;;8355350;28;20754;-60
2022/06/15 08:02:12;;;;;;;6.60;2.15;;;;;;;;;;8355525;28;20511;-60
2022/06/15 08:06:14;;;;;;;4.25;2.00;;;;;;;;;;8358323;28;20389;-60
2022/06/15 08:10:15;;;;;;;4.90;1.73;;;;;;;;;;8357082;28;20089;-60
2022/06/15 08:14:15;;;;;;;4.47;1.87;;;;;;;;;;8357232;28;20041;-60
2022/06/15 08:18:17;;;;;;;2.80;1.50;;;;;;;;;;8358023;28;20592;-60
2022/06/15 08:22:17;;;;;;;5.95;1.80;;;;;;;;;;8357639;28;20115;-62
2022/06/15 08:26:20;;;;;;;4.15;1.75;;;;;;;;;;8357729;28;20067;-60
2022/06/15 08:30:21;;;;;;;3.15;1.60;;;;;;;;;;8358748;28;20309;-60
2022/06/15 08:34:21;;;;;;;5.00;1.67;;;;;;;;;;8354461;28;20033;-60
2022/06/15 08:38:22;;;;;;;6.25;2.00;;;;;;;;;;8356694;28;20024;-60
2022/06/15 08:42:28;;;;;;;3.47;1.67;;;;;;;;;;8359492;28;20020;-60
2022/06/15 08:46:28;;;;;;;7.53;1.80;;;;;;;;;;8358316;28;20033;-60
2022/06/15 08:50:33;;;;;;;6.15;1.80;;;;;;;;;;8350234;28;20082;-61
2022/06/15 08:54:37;;;;;;;3.08;1.80;;;;;;;;;;8352497;28;20153;-60
2022/06/15 08:58:38;;;;;;;4.95;1.90;;;;;;;;;;8353035;28;20048;-60
2022/06/15 09:02:50;;;;;;;2.93;1.80;;;;;;;;;;8350063;28;21094;-60
2022/06/15 09:07:09;;;;;;;4.97;1.80;;;;;;;;;;8355924;28;20078;-61
2022/06/15 09:11:26;;;;;;;8.65;1.98;;;;;;;;;;8349592;28;20020;-60
2022/06/15 09:15:36;;;;;;;2.75;1.85;;;;;;;;;;8351261;28;20121;-60
2022/06/15 09:19:45;;;;;;;3.75;2.00;;;;;;;;;;8351530;28;20028;-60
2022/06/15 09:24:19;;;;;;;4.60;1.90;;;;;;;;;;8355099;28;20039;-60
2022/06/15 09:28:34;;;;;;;4.70;1.90;;;;;;;;;;8353628;28;20440;-61
2022/06/15 09:32:40;;;;;;;3.60;1.75;;;;;;;;;;8351283;28;20028;-60
2022/06/15 09:36:51;;;;;;;4.28;1.80;;;;;;;;;;8356241;28;20035;-60
2022/06/15 09:40:57;;;;;;;3.75;1.80;;;;;;;;;;8353582;28;20043;-60
2022/06/15 09:45:00;;;;;;;2.92;1.67;;;;;;;;;;8355005;28;20986;-61
2022/06/15 09:49:04;;;;;;;6.78;1.98;;;;;;;;;;8356076;28;20633;-60
2022/06/15 09:53:04;;;;;;;5.10;1.98;;;;;;;;;;8353036;28;20480;-61
2022/06/15 09:57:05;;;;;;;5.72;1.85;;;;;;;;;;8356181;28;20016;-60
2022/06/15 10:01:06;;;;;;;4.07;1.90;;;;;;;;;;8349126;28;20750;-61
2022/06/15 10:05:11;;;;;;;6.53;2.00;;;;;;;;;;8353400;28;20021;-61
2022/06/15 10:09:15;;;;;;;4.45;1.88;;;;;;;;;;8352054;28;20044;-60
2022/06/15 10:13:18;;;;;;;2.88;1.50;;;;;;;;;;8356424;28;20024;-60
2022/06/15 10:17:19;;;;;;;7.25;1.88;;;;;;;;;;8351609;28;20040;-61
2022/06/15 10:21:22;;;;;;;6.85;1.77;;;;;;;;;;8354956;28;20033;-61
2022/06/15 10:25:23;;;;;;;4.20;1.70;;;;;;;;;;8355716;28;20126;-61
2022/06/15 10:29:23;;;;;;;;;;;;;;;;;;8355653;28;20020;-61
2022/06/15 10:33:24;;;;;;;5.65;1.90;;;;;;;;;;8354271;28;20077;-62
2022/06/15 10:37:27;;;;;;;5.93;1.87;;;;;;;;;;8351701;28;20037;-60
2022/06/15 10:41:47;;;;;;;4.00;1.70;;;;;;;;;;8356320;28;20461;-61
2022/06/15 10:45:53;;;;;;;3.80;1.70;;;;;;;;;;8354008;28;20067;-60
2022/06/15 10:50:00;;;;;;;3.72;1.77;;;;;;;;;;8351416;28;20847;-61
2022/06/15 10:54:19;;;;;;;2.55;1.52;;;;;;;;;;8354812;28;20081;-60
2022/06/15 11:02:49;;;;;;;5.10;2.30;;;;;;;;;;8353140;28;20213;-61
2022/06/15 11:06:58;;;;;;;4.33;1.90;;;;;;;;;;8352567;28;20497;-61
2022/06/15 11:11:29;;;;;;;4.65;2.33;;;;;;;;;;8349993;28;20029;-60
2022/06/15 11:20:06;;;;;;;4.60;2.53;;;;;;;;;;8354934;28;20074;-60
2022/06/15 11:24:11;;;;;;;5.30;2.20;;;;;;;;;;8349549;28;20067;-60
2022/06/15 11:28:13;;;;;;;5.70;2.00;;;;;;;;;;8355180;28;20021;-61
2022/06/15 11:32:14;;;;;;;5.78;1.95;;;;;;;;;;8351655;28;20036;-61
2022/06/15 11:36:25;;;;;;;3.40;2.00;;;;;;;;;;8354118;28;20764;-60
2022/06/15 11:40:44;;;;;;;3.13;1.92;;;;;;;;;;8351477;28;20033;-60
2022/06/15 11:44:45;;;;;;;5.00;1.98;;;;;;;;;;8350647;28;20494;-60
2022/06/15 11:49:09;;;;;;;2.73;1.87;;;;;;;;;;8352015;28;20133;-60
2022/06/15 11:53:19;;;;;;;6.85;1.70;;;;;;;;;;8350954;28;20055;-60
2022/06/15 11:57:19;;;;;;;4.45;1.92;;;;;;;;;;8353579;28;20370;-60
2022/06/15 12:01:20;;;;;;;6.00;2.03;;;;;;;;;;8349602;28;20071;-61
2022/06/15 12:05:39;;;;;;;3.43;1.67;;;;;;;;;;8352424;28;20102;-61
2022/06/15 12:09:45;;;;;;;2.95;1.80;;;;;;;;;;8350276;28;20036;-61
2022/06/15 12:13:49;;;;;;;3.92;1.80;;;;;;;;;;8353368;28;20511;-61
2022/06/15 12:17:54;;;;;;;5.00;1.90;;;;;;;;;;8349838;28;20040;-61
2022/06/15 12:21:57;;;;;;;2.58;1.65;;;;;;;;;;8352391;28;20028;-60
2022/06/15 12:26:03;;;;;;;7.22;1.90;;;;;;;;;;8357644;28;20029;-62
2022/06/15 12:30:19;;;;;;;9.63;2.08;;;;;;;;;;8354943;28;20024;-61
2022/06/15 12:34:41;;;;;;;3.05;1.65;;;;;;;;;;8358263;28;20089;-61
2022/06/15 12:39:00;;;;;;;3.53;1.70;;;;;;;;;;8354538;28;20021;-61
2022/06/15 12:43:21;;;;;;;2.33;1.90;;;;;;;;;;8357706;28;20948;-61
2022/06/15 12:47:22;;;;;;;6.32;1.70;;;;;;;;;;8356647;28;20036;-61
2022/06/15 12:51:26;;;;;;;2.53;1.58;;;;;;;;;;8357761;28;20021;-61
2022/06/15 12:55:46;;;;;;;2.42;1.65;;;;;;;;;;8360511;28;20059;-60
2022/06/15 12:59:52;;;;;;;2.80;1.60;;;;;;;;;;8357751;28;20041;-61
2022/06/15 13:04:05;;;;;;;3.53;1.77;;;;;;;;;;8357945;28;20553;-60
2022/06/15 13:08:22;;;;;;;1.77;1.42;;;;;;;;;;8356853;28;20072;-61
2022/06/15 13:12:22;;;;;;;2.20;1.63;;;;;;;;;;8356482;28;20501;-60
2022/06/15 13:16:39;;;;;;;5.20;1.80;;;;;;;;;;8354661;28;20300;-60
2022/06/15 13:20:45;;;;;;;4.80;1.60;;;;;;;;;;8355761;28;20032;-61
2022/06/15 13:24:56;;;;;;;4.15;1.70;;;;;;;;;;8351978;28;20900;-61
2022/06/15 13:28:57;;;;;;;;;;;;;;;;;;8355227;28;20156;-60
2022/06/15 13:33:00;;;;;;;3.13;1.73;;;;;;;;;;8352058;28;20496;-60
2022/06/15 13:37:22;;;;;;;5.88;1.65;;;;;;;;;;8352476;28;20891;-61
2022/06/15 13:41:24;;;;;;;6.25;1.70;;;;;;;;;;8347663;28;20927;-61
2022/06/15 13:45:29;;;;;;;1.92;1.40;;;;;;;;;;8350399;28;20493;-61
2022/06/15 13:49:32;;;;;;;6.22;1.50;;;;;;;;;;8354515;28;20024;-61
2022/06/15 13:53:51;;;;;;;3.63;1.48;;;;;;;;;;8351726;28;20028;-60
2022/06/15 13:58:10;;;;;;;4.15;1.50;;;;;;;;;;8352754;28;20039;-61
2022/06/15 14:02:29;;;;;;;3.38;1.60;;;;;;;;;;8351888;28;20691;-60
2022/06/15 14:06:33;;;;;;;2.47;1.73;;;;;;;;;;8354301;28;20032;-60
2022/06/15 14:10:40;;;;;;;5.60;1.67;;;;;;;;;;8352495;28;20039;-60
2022/06/15 14:14:40;;;;;;;4.47;1.58;;;;;;;;;;8352834;28;20021;-61
2022/06/15 14:18:40;;;;;;;3.80;1.58;;;;;;;;;;8352606;28;20116;-61
2022/06/15 14:22:54;;;;;;;3.13;1.60;;;;;;;;;;8351680;28;20131;-60
2022/06/15 14:26:57;;;;;;;5.93;1.85;;;;;;;;;;8351913;28;20032;-61
2022/06/15 14:31:12;;;;;;;6.32;1.45;;;;;;;;;;8350776;28;20519;-62
2022/06/15 14:35:17;;;;;;;2.33;1.70;;;;;;;;;;8353360;28;20031;-62
2022/06/15 14:39:18;;;;;;;2.90;1.70;;;;;;;;;;8354031;28;20024;-61
2022/06/15 14:43:21;;;;;;;2.88;1.63;;;;;;;;;;8352846;28;20838;-61
2022/06/15 14:47:24;;;;;;;1.80;1.63;;;;;;;;;;8354243;28;20430;-61
2022/06/15 14:51:26;;;;;;;2.58;1.70;;;;;;;;;;8353676;28;20696;-60
2022/06/15 14:55:32;;;;;;;3.85;1.50;;;;;;;;;;8353685;28;20717;-61
2022/06/15 14:59:43;;;;;;;3.67;1.55;;;;;;;;;;8352849;28;20055;-61
2022/06/15 15:03:44;;;;;;;1.60;1.33;;;;;;;;;;8351392;28;20494;-60
2022/06/15 15:12:08;;;;;;;1.60;1.50;;;;;;;;;;8353662;28;20097;-61
2022/06/15 15:16:22;;;;;;;4.13;1.60;;;;;;;;;;8352027;28;20426;-61
2022/06/15 15:20:41;;;;;;;2.45;1.60;;;;;;;;;;8351889;28;20028;-61
2022/06/15 15:24:46;;;;;;;7.35;1.77;;;;;;;;;;8350223;28;20033;-61
2022/06/15 15:37:46;;;;;;;2.97;1.60;;;;;;;;;;8352696;28;21178;-60
2022/06/15 15:41:46;;;;;;;3.00;1.33;;;;;;;;;;8353889;28;20104;-61
2022/06/15 15:45:47;;;;;;;2.40;1.50;;;;;;;;;;8350062;28;20101;-61
2022/06/15 15:49:47;;;;;;;2.07;1.37;;;;;;;;;;8352542;28;20021;-61
2022/06/15 15:53:48;;;;;;;3.27;1.60;;;;;;;;;;8352365;28;20024;-61
2022/06/15 15:57:52;;;;;;;3.40;1.80;;;;;;;;;;8353071;28;20097;-61
2022/06/15 16:01:54;;;;;;;4.07;1.63;;;;;;;;;;8356701;28;20044;-65
2022/06/15 16:05:54;;;;;;;1.65;1.42;;;;;;;;;;8358262;28;20059;-61
2022/06/15 16:09:56;;;;;;;2.45;1.30;;;;;;;;;;8357270;28;20124;-60
2022/06/15 16:13:56;;;;;;;2.92;1.33;;;;;;;;;;8357371;28;21150;-62
2022/06/15 16:17:56;;;;;;;2.10;1.30;;;;;;;;;;8358821;28;21691;-61
2022/06/15 16:21:57;;;;;;;1.90;1.67;;;;;;;;;;8360815;28;20396;-61
2022/06/15 16:25:58;;;;;;;1.73;1.57;;;;;;;;;;8352723;28;20797;-61
2022/06/15 16:29:59;;;;;;;3.00;1.30;;;;;;;;;;8353143;28;20113;-61
2022/06/15 16:33:59;;;;;;;2.40;1.30;;;;;;;;;;8352584;28;20037;-61
2022/06/15 16:38:00;;;;;;;2.07;1.50;;;;;;;;;;8353039;28;20381;-61
2022/06/15 16:42:00;;;;;;;1.73;1.50;;;;;;;;;;8352116;28;20478;-61
2022/06/15 16:46:00;;;;;;;1.93;1.40;;;;;;;;;;8351424;28;20094;-61
2022/06/15 16:50:02;;;;;;;2.33;1.80;;;;;;;;;;8356654;28;20028;-61
2022/06/15 16:54:03;;;;;;;2.70;1.40;;;;;;;;;;8355993;28;20799;-61
2022/06/15 16:58:04;;;;;;;2.20;1.48;;;;;;;;;;8354132;28;20748;-61
2022/06/15 17:02:05;;;;;;;1.80;1.40;;;;;;;;;;8352084;28;20032;-62
2022/06/15 17:06:05;;;;;;;1.60;1.50;;;;;;;;;;8354397;28;20116;-61
2022/06/15 17:10:06;;;;;;;1.75;1.50;;;;;;;;;;8350342;28;20527;-61
2022/06/15 17:14:07;;;;;;;1.50;1.40;;;;;;;;;;8351936;28;20078;-60
2022/06/15 17:18:07;;;;;;;3.75;1.60;;;;;;;;;;8353026;28;20036;-60
2022/06/15 17:22:08;;;;;;;3.63;1.50;;;;;;;;;;8352368;28;20032;-60
2022/06/15 17:26:10;;;;;;;2.63;1.50;;;;;;;;;;8350909;28;20023;-60
2022/06/15 17:30:11;;;;;;;2.67;1.50;;;;;;;;;;8350184;28;20020;-61
2022/06/15 17:34:11;;;;;;;1.55;1.40;;;;;;;;;;8351961;28;20056;-61
2022/06/15 17:38:11;;;;;;;1.70;1.58;;;;;;;;;;8356553;28;20547;-61
2022/06/15 17:42:11;;;;;;;1.92;1.40;;;;;;;;;;8356979;28;20035;-61
2022/06/15 17:46:12;;;;;;;2.28;1.40;;;;;;;;;;8353586;28;20028;-61
2022/06/15 17:50:12;;;;;;;3.00;1.53;;;;;;;;;;8355872;28;20575;-61
2022/06/15 17:54:16;;;;;;;2.10;1.30;;;;;;;;;;8357512;28;20020;-61
2022/06/15 17:58:16;;;;;;;2.58;1.50;;;;;;;;;;8353676;28;20054;-60
2022/06/15 18:02:16;;;;;;;1.60;1.33;;;;;;;;;;8356182;28;20435;-61
2022/06/15 18:06:17;;;;;;;2.92;1.30;;;;;;;;;;8353943;28;20416;-60
2022/06/15 18:10:17;;;;;;;3.20;1.50;;;;;;;;;;8354688;28;20032;-62
2022/06/15 18:14:20;;;;;;;1.57;1.27;;;;;;;;;;8357244;28;20657;-60
2022/06/15 18:18:20;;;;;;;1.92;1.50;;;;;;;;;;8354652;28;20407;-60
2022/06/15 18:22:21;;;;;;;1.80;1.65;;;;;;;;;;8351342;28;20040;-60
2022/06/15 18:26:21;;;;;;;2.08;1.60;;;;;;;;;;8355577;28;20040;-61
2022/06/15 18:30:21;;;;;;;1.73;1.40;;;;;;;;;;8352276;28;20028;-61
2022/06/15 18:34:22;;;;;;;1.85;1.40;;;;;;;;;;8354607;28;20587;-61
2022/06/15 18:38:23;;;;;;;1.58;1.40;;;;;;;;;;8355189;28;20482;-61
2022/06/15 18:42:24;;;;;;;4.13;1.60;;;;;;;;;;8353241;28;20934;-61
2022/06/15 18:50:43;;;;;;;3.10;1.42;;;;;;;;;;8355560;28;20035;-61
2022/06/15 18:54:47;;;;;;;2.13;1.67;;;;;;;;;;8354190;28;20064;-61
2022/06/15 18:58:49;;;;;;;3.85;1.70;;;;;;;;;;8353694;28;20384;-61
2022/06/15 19:02:50;;;;;;;3.35;1.52;;;;;;;;;;8350120;28;20155;-61
2022/06/15 19:06:50;;;;;;;2.70;1.50;;;;;;;;;;8355920;28;20029;-60
2022/06/15 19:10:50;;;;;;;1.92;1.60;;;;;;;;;;8352478;28;20036;-61
2022/06/15 19:14:50;;;;;;;2.05;1.40;;;;;;;;;;8350656;28;20063;-60
2022/06/15 19:18:52;;;;;;;1.92;1.55;;;;;;;;;;8352389;28;20031;-60
2022/06/15 19:22:52;;;;;;;2.60;1.50;;;;;;;;;;8351631;28;20102;-61
2022/06/15 19:26:52;;;;;;;2.35;1.50;;;;;;;;;;8354357;28;20501;-60
2022/06/15 19:30:58;;;;;;;2.55;1.75;;;;;;;;;;8350394;28;20408;-61
2022/06/15 19:34:59;;;;;;;3.58;1.50;;;;;;;;;;8350589;28;20508;-61
2022/06/15 19:38:59;;;;;;;1.88;1.70;;;;;;;;;;8351765;28;20021;-60
2022/06/15 19:43:01;;;;;;;3.40;1.60;;;;;;;;;;8353924;28;20466;-61
2022/06/15 19:47:01;;;;;;;6.57;1.53;;;;;;;;;;8351344;28;20287;-61
2022/06/15 19:51:02;;;;;;;3.58;1.63;;;;;;;;;;8353214;28;20058;-60
2022/06/15 19:55:03;;;;;;;5.32;2.10;;;;;;;;;;8352367;28;20020;-61
2022/06/15 19:59:03;;;;;;;7.15;2.10;;;;;;;;;;8348550;28;20561;-61
2022/06/15 20:03:03;;;;;;;4.57;1.90;;;;;;;;;;8352696;28;20040;-61
2022/06/15 20:07:03;;;;;;;2.25;1.88;;;;;;;;;;8352806;28;20024;-60
2022/06/15 20:11:04;;;;;;;2.23;1.73;;;;;;;;;;8353187;28;20032;-61
2022/06/15 20:15:04;;;;;;;2.67;1.63;;;;;;;;;;8351364;28;20028;-61
2022/06/15 20:19:04;;;;;;;2.45;1.90;;;;;;;;;;8354554;28;20490;-60
2022/06/15 20:23:08;;;;;;;2.47;2.00;;;;;;;;;;8351150;28;20277;-60
2022/06/15 20:27:08;;;;;;;;;;;;;;;;;;8353716;28;20020;-60
2022/06/15 20:31:12;;;;;;;5.05;1.80;;;;;;;;;;8351475;28;19946;-60
2022/06/15 20:35:13;;;;;;;7.85;2.00;;;;;;;;;;8348734;28;20032;-60
2022/06/15 20:39:13;;;;;;;3.60;1.70;;;;;;;;;;8351640;28;20029;-61
2022/06/15 20:43:15;;;;;;;3.83;1.83;;;;;;;;;;8351798;28;20025;-60
2022/06/15 20:47:16;;;;;;;3.10;1.77;;;;;;;;;;8356027;28;20059;-61
2022/06/15 20:51:16;;;;;;;3.00;1.70;;;;;;;;;;8356917;28;20016;-61
2022/06/15 20:55:16;;;;;;;3.70;1.73;;;;;;;;;;8356606;28;20641;-61
2022/06/15 20:59:17;;;;;;;6.93;2.20;;;;;;;;;;8359153;28;20908;-60
2022/06/15 21:03:17;;;;;;;3.95;2.20;;;;;;;;;;8355020;28;20995;-61
2022/06/15 21:07:21;;;;;;;2.80;2.00;;;;;;;;;;8358349;28;20027;-61
2022/06/15 21:20:15;;;;;;;3.17;2.00;;;;;;;;;;8320603;28;20035;-60
2022/06/15 21:24:15;;;;;;;3.35;1.77;;;;;;;;;;8357530;28;20058;-60
2022/06/15 21:28:15;;;;;;;2.40;2.10;;;;;;;;;;8354944;28;20542;-61
2022/06/15 21:32:16;;;;;;;3.30;2.17;;;;;;;;;;8356815;28;20028;-60
2022/06/15 21:36:16;;;;;;;5.67;2.17;;;;;;;;;;8356306;28;20135;-60
2022/06/15 21:40:18;;;;;;;5.13;2.00;;;;;;;;;;8354542;28;20026;-60
2022/06/15 21:44:18;;;;;;;2.83;2.05;;;;;;;;;;8356141;28;20021;-60
2022/06/15 21:48:19;;;;;;;3.35;1.90;;;;;;;;;;8352011;28;20058;-61
2022/06/15 21:52:19;;;;;;;2.78;2.08;;;;;;;;;;8355724;28;20082;-61
2022/06/15 21:56:19;;;;;;;3.90;2.20;;;;;;;;;;8355204;28;20025;-60
2022/06/15 22:00:22;;;;;;;3.70;2.05;;;;;;;;;;8354858;28;20016;-60
2022/06/15 22:04:23;;;;;;;4.70;2.03;;;;;;;;;;8353539;28;20162;-60
2022/06/15 22:08:23;;;;;;;2.20;2.00;;;;;;;;;;8357007;28;20148;-61
2022/06/15 22:12:23;;;;;;;2.28;1.90;;;;;;;;;;8355347;28;20401;-61
2022/06/15 22:16:23;;;;;;;3.55;2.10;;;;;;;;;;8353583;28;20116;-61
2022/06/15 22:20:25;;;;;;;2.83;2.00;;;;;;;;;;8355439;28;20463;-61
2022/06/15 22:24:26;;;;;;;5.18;2.10;;;;;;;;;;8354571;28;20139;-61
2022/06/15 22:28:26;;;;;;;4.90;2.10;;;;;;;;;;8352855;28;20059;-60
2022/06/15 22:32:26;;;;;;;2.85;2.00;;;;;;;;;;8347761;28;20923;-61
2022/06/15 22:36:26;;;;;;;2.73;1.83;;;;;;;;;;8352505;28;20032;-62
2022/06/15 22:40:27;;;;;;;2.80;2.40;;;;;;;;;;8353608;28;20833;-60
2022/06/15 22:44:28;;;;;;;4.03;1.98;;;;;;;;;;8352934;28;20028;-61
2022/06/15 22:52:47;;;;;;;6.63;2.40;;;;;;;;;;8352723;28;20106;-60
2022/06/15 22:56:47;;;;;;;3.88;2.33;;;;;;;;;;8351388;28;20028;-60
2022/06/15 23:00:48;;;;;;;4.37;2.10;;;;;;;;;;8354463;28;20071;-61
2022/06/15 23:04:48;;;;;;;3.55;2.20;;;;;;;;;;8344255;28;20028;-61
2022/06/15 23:08:51;;;;;;;3.05;2.08;;;;;;;;;;8351392;28;21094;-60
2022/06/15 23:12:51;;;;;;;3.30;2.00;;;;;;;;;;8352360;28;20920;-60
2022/06/15 23:16:52;;;;;;;4.93;1.98;;;;;;;;;;8352663;28;20163;-61
2022/06/15 23:20:53;;;;;;;3.30;2.15;;;;;;;;;;8351802;28;20029;-60
2022/06/15 23:24:53;;;;;;;5.97;2.47;;;;;;;;;;8352616;28;20715;-61
2022/06/15 23:28:54;;;;;;;5.28;2.05;;;;;;;;;;8351637;28;20115;-61
2022/06/15 23:32:54;;;;;;;7.20;2.38;;;;;;;;;;8352568;28;20529;-61
2022/06/15 23:36:54;;;;;;;7.67;1.83;;;;;;;;;;8352148;28;20020;-61
2022/06/15 23:40:54;;;;;;;4.18;2.10;;;;;;;;;;8350926;28;20999;-61
2022/06/15 23:47:22;;;;;;;2.80;2.03;;;;;;;;;;8353104;28;20106;-61
2022/06/15 23:49:16;;;;;;;2.10;1.88;;;;;;;;;;8351511;28;20078;-60
2022/06/15 23:53:18;;;;;;;4.55;2.30;;;;;;;;;;8354542;28;20990;-60
2022/06/15 23:57:18;;;;;;;3.85;2.03;;;;;;;;;;8350966;28;20024;-60
